createdAt,value
2023-07-08T00:00:43.654Z,20.88
2023-07-08T00:03:10.519Z,20.95
2023-07-08T00:05:38.885Z,20.98
2023-07-08T00:08:23.421Z,21.00
2023-07-08T00:10:50.210Z,21.10
2023-07-08T00:13:18.551Z,20.89
2023-07-08T00:15:45.244Z,20.91
2023-07-08T00:18:17.560Z,21.12
2023-07-08T00:20:53.314Z,21.34
2023-07-08T00:23:20.049Z,21.13
2023-07-08T00:25:47.152Z,21.17
2023-07-08T00:28:16.081Z,20.92
2023-07-08T00:30:43.333Z,20.99
2023-07-08T00:33:10.160Z,21.10
2023-07-08T00:35:38.240Z,20.92
2023-07-08T00:38:15.196Z,20.67
2023-07-08T00:41:03.930Z,20.58
2023-07-08T00:43:57.378Z,20.50
2023-07-08T00:46:38.372Z,20.28
2023-07-08T00:49:20.228Z,20.38
2023-07-08T00:51:47.000Z,20.31
2023-07-08T00:54:19.299Z,20.28
2023-07-08T00:57:00.515Z,20.30
2023-07-08T00:59:32.282Z,20.40
2023-07-08T01:01:59.621Z,20.71
2023-07-08T01:04:30.136Z,20.42
2023-07-08T01:06:57.716Z,20.33
2023-07-08T01:09:35.371Z,20.78
2023-07-08T01:12:03.850Z,20.11
2023-07-08T01:14:32.159Z,20.22
2023-07-08T01:16:59.158Z,20.10
2023-07-08T01:19:26.278Z,20.01
2023-07-08T01:22:00.004Z,20.17
2023-07-08T01:24:26.774Z,20.01
2023-07-08T01:26:53.582Z,20.01
2023-07-08T01:29:20.509Z,19.81
2023-07-08T01:31:47.603Z,19.77
2023-07-08T01:34:14.847Z,19.80
2023-07-08T01:36:42.469Z,20.14
2023-07-08T01:39:13.246Z,20.12
2023-07-08T01:41:40.363Z,20.10
2023-07-08T01:44:31.259Z,20.16
2023-07-08T01:46:59.928Z,20.24
2023-07-08T01:49:27.034Z,20.38
2023-07-08T01:51:54.095Z,20.35
2023-07-08T01:54:20.849Z,20.38
2023-07-08T01:56:47.556Z,20.53
2023-07-08T01:59:14.704Z,20.53
2023-07-08T02:01:41.898Z,20.69
2023-07-08T02:04:08.976Z,20.88
2023-07-08T02:06:36.081Z,20.69
2023-07-08T02:09:02.814Z,20.47
2023-07-08T02:11:29.921Z,20.47
2023-07-08T02:13:57.055Z,20.47
2023-07-08T02:16:23.791Z,20.53
2023-07-08T02:18:50.523Z,20.43
2023-07-08T02:21:18.212Z,20.47
2023-07-08T02:23:49.991Z,20.41
2023-07-08T02:26:17.177Z,20.39
2023-07-08T02:28:43.886Z,20.32
2023-07-08T02:31:10.998Z,20.43
2023-07-08T02:33:38.114Z,20.19
2023-07-08T02:36:04.928Z,20.29
2023-07-08T02:38:31.652Z,20.16
2023-07-08T02:40:58.782Z,20.29
2023-07-08T02:43:25.791Z,20.31
2023-07-08T02:45:52.567Z,20.32
2023-07-08T02:48:19.996Z,20.41
2023-07-08T02:50:46.794Z,20.42
2023-07-08T02:53:13.582Z,20.49
2023-07-08T02:55:40.733Z,20.60
2023-07-08T02:58:07.468Z,20.80
2023-07-08T03:00:34.177Z,20.82
2023-07-08T03:03:00.971Z,20.49
2023-07-08T03:05:27.836Z,20.52
2023-07-08T03:07:54.943Z,20.70
2023-07-08T03:10:21.684Z,20.79
2023-07-08T03:12:48.423Z,20.68
2023-07-08T03:15:15.175Z,20.52
2023-07-08T03:17:42.008Z,21.40
2023-07-08T03:20:10.534Z,21.71
2023-07-08T03:22:37.802Z,20.92
2023-07-08T03:25:05.599Z,20.03
2023-07-08T03:27:32.971Z,18.96
2023-07-08T03:30:02.672Z,18.61
2023-07-08T03:32:29.959Z,18.13
2023-07-08T03:34:56.973Z,17.87
2023-07-08T03:37:23.838Z,18.59
2023-07-08T03:39:50.900Z,18.44
2023-07-08T03:42:18.041Z,18.35
2023-07-08T03:44:47.609Z,17.90
2023-07-08T03:47:14.725Z,18.14
2023-07-08T03:49:41.776Z,18.14
2023-07-08T03:52:08.770Z,18.28
2023-07-08T03:54:35.835Z,18.44
2023-07-08T03:57:03.127Z,18.25
2023-07-08T03:59:29.833Z,18.27
2023-07-08T04:01:57.042Z,18.24
2023-07-08T04:04:23.932Z,18.28
2023-07-08T04:06:50.767Z,18.33
2023-07-08T04:09:17.829Z,18.34
2023-07-08T04:11:44.627Z,18.72
2023-07-08T04:14:11.826Z,18.54
2023-07-08T04:16:53.228Z,18.43
2023-07-08T04:19:20.285Z,18.44
2023-07-08T04:21:47.594Z,18.30
2023-07-08T04:24:16.613Z,18.24
2023-07-08T04:26:44.075Z,18.30
2023-07-08T04:29:15.288Z,18.39
2023-07-08T04:31:42.531Z,18.50
2023-07-08T04:34:09.799Z,18.47
2023-07-08T04:36:37.215Z,18.06
2023-07-08T04:39:05.058Z,17.95
2023-07-08T04:41:33.892Z,17.97
2023-07-08T04:44:00.713Z,17.73
2023-07-08T04:46:37.846Z,17.55
2023-07-08T04:49:05.046Z,17.52
2023-07-08T04:51:31.827Z,17.44
2023-07-08T04:54:02.858Z,17.43
2023-07-08T04:56:43.114Z,17.39
2023-07-08T04:59:12.307Z,17.36
2023-07-08T05:01:41.916Z,17.42
2023-07-08T05:04:08.994Z,17.39
2023-07-08T05:06:35.822Z,17.38
2023-07-08T05:09:03.035Z,17.36
2023-07-08T05:11:31.093Z,17.51
2023-07-08T05:13:58.131Z,17.61
2023-07-08T05:16:27.801Z,17.66
2023-07-08T05:18:54.589Z,17.72
2023-07-08T05:21:21.872Z,17.77
2023-07-08T05:23:51.380Z,17.80
2023-07-08T05:26:18.187Z,17.80
2023-07-08T05:28:44.926Z,17.71
2023-07-08T05:31:12.403Z,17.62
2023-07-08T05:33:39.520Z,17.57
2023-07-08T05:36:08.220Z,17.58
2023-07-08T05:38:42.243Z,17.54
2023-07-08T05:41:10.094Z,17.48
2023-07-08T05:43:36.821Z,17.44
2023-07-08T05:46:11.486Z,17.45
2023-07-08T05:48:39.393Z,17.41
2023-07-08T05:51:06.707Z,17.38
2023-07-08T05:53:33.460Z,17.39
2023-07-08T05:56:00.204Z,17.38
2023-07-08T05:58:27.503Z,17.55
2023-07-08T06:00:59.414Z,17.64
2023-07-08T06:03:26.691Z,17.67
2023-07-08T06:05:54.414Z,17.71
2023-07-08T06:08:21.680Z,17.80
2023-07-08T06:10:48.458Z,17.81
2023-07-08T06:13:15.252Z,17.77
2023-07-08T06:15:42.376Z,17.86
2023-07-08T06:18:12.117Z,17.92
2023-07-08T06:20:38.914Z,17.96
2023-07-08T06:23:06.892Z,18.03
2023-07-08T06:25:34.953Z,18.04
2023-07-08T06:28:04.780Z,18.10
2023-07-08T06:30:31.574Z,18.10
2023-07-08T06:33:02.051Z,18.14
2023-07-08T06:35:29.632Z,18.12
2023-07-08T06:37:58.157Z,18.19
2023-07-08T06:40:24.893Z,18.16
2023-07-08T06:42:51.618Z,18.30
2023-07-08T06:45:23.425Z,18.33
2023-07-08T06:47:55.975Z,18.47
2023-07-08T06:50:22.925Z,18.53
2023-07-08T06:52:52.643Z,18.41
2023-07-08T06:55:20.080Z,18.37
2023-07-08T06:57:46.894Z,18.57
2023-07-08T07:00:15.284Z,18.59
2023-07-08T07:02:42.092Z,18.62
2023-07-08T07:05:10.025Z,18.66
2023-07-08T07:07:37.212Z,18.80
2023-07-08T07:10:04.533Z,18.87
2023-07-08T07:12:31.725Z,18.92
2023-07-08T07:14:58.569Z,19.01
2023-07-08T07:17:27.087Z,18.96
2023-07-08T07:19:54.826Z,18.87
2023-07-08T07:22:21.630Z,18.85
2023-07-08T07:24:49.387Z,18.67
2023-07-08T07:27:16.166Z,18.76
2023-07-08T07:29:44.687Z,18.72
2023-07-08T07:32:12.004Z,18.76
2023-07-08T07:34:39.481Z,18.67
2023-07-08T07:37:10.637Z,18.65
2023-07-08T07:39:37.868Z,18.68
2023-07-08T07:42:05.709Z,18.76
2023-07-08T07:44:34.021Z,18.70
2023-07-08T07:47:01.407Z,18.66
2023-07-08T07:49:28.598Z,18.62
2023-07-08T07:51:55.446Z,18.61
2023-07-08T07:54:23.381Z,18.61
2023-07-08T07:56:51.848Z,18.62
2023-07-08T07:59:18.635Z,18.67
2023-07-08T08:01:45.718Z,18.88
2023-07-08T08:04:12.610Z,18.83
2023-07-08T08:06:39.405Z,18.86
2023-07-08T08:09:06.492Z,19.04
2023-07-08T08:11:33.977Z,19.13
2023-07-08T08:14:01.457Z,19.26
2023-07-08T08:16:29.392Z,19.32
2023-07-08T08:18:56.662Z,19.50
2023-07-08T08:21:24.932Z,19.44
2023-07-08T08:23:51.686Z,19.52
2023-07-08T08:26:18.441Z,19.39
2023-07-08T08:28:45.179Z,19.43
2023-07-08T08:31:14.608Z,19.30
2023-07-08T08:33:42.066Z,19.32
2023-07-08T08:36:09.137Z,19.43
2023-07-08T08:38:38.894Z,19.72
2023-07-08T08:41:16.637Z,19.81
2023-07-08T08:43:45.247Z,19.82
2023-07-08T08:46:58.667Z,20.19
2023-07-08T08:49:30.916Z,19.98
2023-07-08T08:51:57.758Z,20.27
2023-07-08T08:54:24.774Z,20.85
2023-07-08T08:57:00.969Z,21.24
2023-07-08T08:59:46.980Z,21.74
2023-07-08T09:02:28.957Z,21.88
2023-07-08T09:05:09.628Z,22.01
2023-07-08T09:07:52.567Z,20.91
2023-07-08T09:10:56.837Z,21.43
2023-07-08T09:13:26.977Z,21.86
2023-07-08T09:16:40.302Z,22.30
2023-07-08T09:19:25.769Z,23.10
2023-07-08T09:22:03.768Z,23.73
2023-07-08T09:24:48.359Z,23.79
2023-07-08T09:27:15.553Z,23.57
2023-07-08T09:29:42.754Z,23.55
2023-07-08T09:32:16.959Z,23.18
2023-07-08T09:34:54.471Z,24.05
2023-07-08T09:37:33.101Z,24.55
2023-07-08T09:40:01.258Z,24.65
2023-07-08T09:42:33.436Z,24.70
2023-07-08T09:45:01.734Z,24.74
2023-07-08T09:47:48.404Z,24.65
2023-07-08T09:50:29.309Z,22.98
2023-07-08T09:52:58.789Z,23.47
2023-07-08T09:55:26.785Z,24.40
2023-07-08T09:57:54.290Z,24.74
2023-07-08T10:00:28.888Z,25.18
2023-07-08T10:02:56.971Z,25.60
2023-07-08T10:05:30.163Z,26.03
2023-07-08T10:07:57.831Z,25.96
2023-07-08T10:10:34.684Z,25.36
2023-07-08T10:13:04.005Z,26.22
2023-07-08T10:15:44.040Z,26.01
2023-07-08T10:18:17.921Z,26.36
2023-07-08T10:21:11.327Z,25.94
2023-07-08T10:24:15.199Z,26.71
2023-07-08T10:26:42.117Z,26.07
2023-07-08T10:29:27.740Z,26.63
2023-07-08T10:32:15.584Z,26.43
2023-07-08T10:34:57.914Z,26.39
2023-07-08T10:38:02.308Z,26.20
2023-07-08T10:40:46.137Z,26.26
2023-07-08T10:43:41.632Z,26.29
2023-07-08T10:47:09.343Z,26.77
2023-07-08T10:49:55.201Z,26.10
2023-07-08T10:52:49.859Z,26.28
2023-07-08T10:55:45.657Z,26.27
2023-07-08T10:58:31.987Z,26.26
2023-07-08T11:01:11.448Z,26.23
2023-07-08T11:04:08.529Z,26.63
2023-07-08T11:07:04.691Z,26.69
2023-07-08T11:09:37.564Z,27.01
2023-07-08T11:12:42.701Z,27.00
2023-07-08T11:15:12.547Z,27.70
2023-07-08T11:18:03.961Z,27.10
2023-07-08T11:20:46.751Z,27.23
2023-07-08T11:23:24.796Z,27.04
2023-07-08T11:25:52.009Z,27.02
2023-07-08T11:28:20.129Z,27.05
2023-07-08T11:30:48.670Z,27.59
2023-07-08T11:33:15.467Z,27.93
2023-07-08T11:35:42.047Z,27.93
2023-07-08T11:38:12.967Z,27.57
2023-07-08T11:41:04.029Z,28.11
2023-07-08T11:43:57.981Z,27.66
2023-07-08T11:46:26.914Z,27.67
2023-07-08T11:48:54.130Z,28.24
2023-07-08T11:51:24.753Z,28.01
2023-07-08T11:54:21.844Z,28.79
2023-07-08T11:57:01.337Z,28.38
2023-07-08T11:59:34.077Z,28.76
2023-07-08T12:02:05.792Z,29.37
2023-07-08T12:04:36.185Z,28.99
2023-07-08T12:07:31.284Z,28.66
2023-07-08T12:10:12.336Z,28.89
2023-07-08T12:12:42.035Z,28.94
2023-07-08T12:15:28.077Z,29.28
2023-07-08T12:17:59.448Z,29.80
2023-07-08T12:20:34.092Z,29.21
2023-07-08T12:23:01.114Z,29.53
2023-07-08T12:25:32.306Z,29.68
2023-07-08T12:28:00.173Z,30.06
2023-07-08T12:30:27.676Z,29.39
2023-07-08T12:32:54.453Z,29.09
2023-07-08T12:35:24.269Z,29.25
2023-07-08T12:37:52.787Z,29.61
2023-07-08T12:40:21.093Z,29.67
2023-07-08T12:42:48.135Z,29.83
2023-07-08T12:45:20.852Z,30.12
2023-07-08T12:47:47.779Z,29.48
2023-07-08T12:50:14.864Z,27.50
2023-07-08T12:52:42.335Z,28.81
2023-07-08T12:55:10.711Z,29.11
2023-07-08T12:57:38.818Z,29.22
2023-07-08T13:00:11.765Z,29.65
2023-07-08T13:02:38.996Z,30.03
2023-07-08T13:05:06.086Z,30.38
2023-07-08T13:07:38.625Z,30.72
2023-07-08T13:10:06.826Z,30.74
2023-07-08T13:12:33.727Z,30.77
2023-07-08T13:15:01.757Z,30.74
2023-07-08T13:17:28.607Z,31.02
2023-07-08T13:19:55.570Z,30.73
2023-07-08T13:22:22.991Z,31.01
2023-07-08T13:24:49.693Z,31.14
2023-07-08T13:27:23.766Z,31.11
2023-07-08T13:29:57.163Z,31.09
2023-07-08T13:32:36.362Z,30.75
2023-07-08T13:35:03.124Z,31.21
2023-07-08T13:37:32.769Z,30.18
2023-07-08T13:39:59.759Z,31.06
2023-07-08T13:42:26.535Z,31.02
2023-07-08T13:44:53.273Z,31.15
2023-07-08T13:47:21.878Z,31.15
2023-07-08T13:49:48.952Z,30.34
2023-07-08T13:52:20.852Z,29.50
2023-07-08T13:54:49.704Z,29.78
2023-07-08T13:57:17.724Z,30.27
2023-07-08T13:59:44.489Z,29.25
2023-07-08T14:02:31.043Z,29.86
2023-07-08T14:04:58.723Z,30.68
2023-07-08T14:07:29.941Z,31.31
2023-07-08T14:09:57.129Z,31.43
2023-07-08T14:12:24.262Z,30.27
2023-07-08T14:14:51.352Z,30.50
2023-07-08T14:17:25.812Z,30.89
2023-07-08T14:19:53.631Z,30.73
2023-07-08T14:22:23.304Z,30.98
2023-07-08T14:24:50.428Z,31.23
2023-07-08T14:27:19.035Z,31.60
2023-07-08T14:29:48.313Z,31.73
2023-07-08T14:32:25.584Z,31.56
2023-07-08T14:34:54.037Z,31.76
2023-07-08T14:37:21.300Z,31.24
2023-07-08T14:39:48.872Z,31.18
2023-07-08T14:42:17.717Z,31.02
2023-07-08T14:44:48.904Z,31.36
2023-07-08T14:47:17.867Z,31.85
2023-07-08T14:49:44.685Z,32.07
2023-07-08T14:52:11.470Z,31.39
2023-07-08T14:54:38.930Z,32.06
2023-07-08T14:57:06.243Z,32.46
2023-07-08T14:59:34.170Z,31.19
2023-07-08T15:02:02.100Z,31.73
2023-07-08T15:04:28.910Z,31.49
2023-07-08T15:06:58.844Z,31.83
2023-07-08T15:09:26.065Z,31.68
2023-07-08T15:11:52.793Z,31.99
2023-07-08T15:14:20.589Z,31.65
2023-07-08T15:16:47.940Z,31.85
2023-07-08T15:19:15.302Z,32.01
2023-07-08T15:21:42.061Z,32.26
2023-07-08T15:24:10.991Z,32.70
2023-07-08T15:26:42.514Z,31.14
2023-07-08T15:29:15.038Z,31.03
2023-07-08T15:31:41.809Z,30.55
2023-07-08T15:34:16.536Z,31.52
2023-07-08T15:36:43.270Z,30.89
2023-07-08T15:39:10.142Z,31.68
2023-07-08T15:41:36.975Z,32.10
2023-07-08T15:44:03.712Z,32.34
2023-07-08T15:46:35.438Z,32.06
2023-07-08T15:49:05.861Z,31.31
2023-07-08T15:51:32.577Z,31.48
2023-07-08T15:53:59.300Z,30.05
2023-07-08T15:56:26.031Z,30.76
2023-07-08T15:58:52.745Z,31.81
2023-07-08T16:01:23.777Z,32.35
2023-07-08T16:03:50.723Z,32.46
2023-07-08T16:06:18.023Z,32.40
2023-07-08T16:08:45.206Z,32.68
2023-07-08T16:11:34.965Z,33.11
2023-07-08T16:14:03.029Z,32.74
2023-07-08T16:16:30.138Z,32.32
2023-07-08T16:18:57.370Z,33.25
2023-07-08T16:21:24.532Z,33.84
2023-07-08T16:23:51.636Z,34.17
2023-07-08T16:26:18.742Z,33.33
2023-07-08T16:28:46.323Z,33.12
2023-07-08T16:31:22.114Z,32.16
2023-07-08T16:33:49.287Z,32.71
2023-07-08T16:36:17.699Z,32.93
2023-07-08T16:38:44.775Z,33.25
2023-07-08T16:41:50.728Z,34.09
2023-07-08T16:44:17.604Z,35.02
2023-07-08T16:46:44.566Z,33.68
2023-07-08T16:49:31.360Z,32.95
2023-07-08T16:51:58.127Z,33.17
2023-07-08T16:54:36.114Z,33.12
2023-07-08T16:57:02.840Z,32.93
2023-07-08T16:59:29.553Z,32.96
2023-07-08T17:01:57.503Z,33.18
2023-07-08T17:04:28.684Z,34.70
2023-07-08T17:06:55.794Z,35.35
2023-07-08T17:09:22.562Z,36.02
2023-07-08T17:11:49.281Z,36.38
2023-07-08T17:14:16.710Z,36.73
2023-07-08T17:16:44.199Z,35.73
2023-07-08T17:19:10.974Z,36.82
2023-07-08T17:21:37.696Z,38.21
2023-07-08T17:24:04.736Z,38.88
2023-07-08T17:26:32.109Z,36.18
2023-07-08T17:28:58.857Z,37.84
2023-07-08T17:31:34.492Z,38.52
2023-07-08T17:34:20.503Z,38.01
2023-07-08T17:36:54.273Z,38.21
2023-07-08T17:39:21.115Z,39.39
2023-07-08T17:41:47.881Z,39.11
2023-07-08T17:44:14.608Z,39.56
2023-07-08T17:46:41.367Z,39.14
2023-07-08T17:49:11.531Z,40.03
2023-07-08T17:51:38.288Z,39.19
2023-07-08T17:54:05.003Z,38.94
2023-07-08T17:56:47.819Z,39.87
2023-07-08T17:59:19.948Z,40.31
2023-07-08T18:01:46.920Z,39.43
2023-07-08T18:04:13.674Z,39.71
2023-07-08T18:06:40.428Z,39.90
2023-07-08T18:09:07.148Z,39.71
2023-07-08T18:11:34.385Z,39.39
2023-07-08T18:14:01.478Z,36.31
2023-07-08T18:16:28.382Z,34.32
2023-07-08T18:18:55.203Z,34.18
2023-07-08T18:21:23.831Z,33.60
2023-07-08T18:23:56.322Z,32.49
2023-07-08T18:26:25.530Z,31.40
2023-07-08T18:28:52.718Z,30.70
2023-07-08T18:31:22.754Z,31.03
2023-07-08T18:33:49.716Z,30.31
2023-07-08T18:36:16.939Z,30.00
2023-07-08T18:38:44.297Z,29.68
2023-07-08T18:41:19.166Z,30.41
2023-07-08T18:43:45.875Z,31.09
2023-07-08T18:46:15.096Z,29.50
2023-07-08T18:48:41.966Z,28.15
2023-07-08T18:51:42.740Z,27.73
2023-07-08T18:54:23.326Z,26.79
2023-07-08T18:56:50.054Z,26.23
2023-07-08T18:59:17.904Z,26.36
2023-07-08T19:01:48.716Z,26.30
2023-07-08T19:04:25.248Z,26.20
2023-07-08T19:06:53.872Z,25.96
2023-07-08T19:09:21.010Z,26.23
2023-07-08T19:11:47.748Z,26.19
2023-07-08T19:14:15.900Z,25.84
2023-07-08T19:16:42.748Z,25.80
2023-07-08T19:19:10.308Z,25.60
2023-07-08T19:21:37.024Z,25.64
2023-07-08T19:24:04.909Z,25.33
2023-07-08T19:26:32.367Z,25.59
2023-07-08T19:28:59.084Z,25.04
2023-07-08T19:31:32.935Z,24.78
2023-07-08T19:34:03.234Z,24.66
2023-07-08T19:36:30.915Z,24.46
2023-07-08T19:39:00.683Z,24.43
2023-07-08T19:41:29.598Z,24.34
2023-07-08T19:43:57.130Z,24.40
2023-07-08T19:46:23.860Z,24.36
2023-07-08T19:48:50.966Z,24.40
2023-07-08T19:51:19.589Z,24.43
2023-07-08T19:53:46.323Z,24.98
2023-07-08T19:56:16.853Z,25.72
2023-07-08T19:58:44.410Z,25.49
2023-07-08T20:01:12.088Z,25.42
2023-07-08T20:03:39.020Z,24.81
2023-07-08T20:06:23.165Z,24.05
2023-07-08T20:08:50.022Z,23.72
2023-07-08T20:11:17.272Z,23.61
2023-07-08T20:13:44.033Z,23.57
2023-07-08T20:16:18.759Z,23.58
2023-07-08T20:18:46.445Z,23.61
2023-07-08T20:21:13.638Z,23.48
2023-07-08T20:23:40.499Z,23.24
2023-07-08T20:26:28.315Z,23.02
2023-07-08T20:28:58.165Z,22.91
2023-07-08T20:31:25.030Z,22.95
2023-07-08T20:33:52.261Z,23.04
2023-07-08T20:36:22.668Z,23.03
2023-07-08T20:38:49.733Z,23.13
2023-07-08T20:41:16.513Z,23.15
2023-07-08T20:43:43.605Z,23.26
2023-07-08T20:46:30.523Z,23.21
2023-07-08T20:48:59.099Z,23.11
2023-07-08T20:51:25.905Z,23.07
2023-07-08T20:54:12.746Z,23.06
2023-07-08T20:56:39.877Z,23.03
2023-07-08T20:59:16.221Z,23.03
2023-07-08T21:01:44.769Z,22.94
2023-07-08T21:04:13.024Z,22.81
2023-07-08T21:06:40.183Z,22.74
2023-07-08T21:09:09.373Z,22.74
2023-07-08T21:11:36.689Z,22.75
2023-07-08T21:14:03.510Z,22.85
2023-07-08T21:16:30.747Z,22.86
2023-07-08T21:18:57.872Z,22.77
2023-07-08T21:21:24.807Z,22.70
2023-07-08T21:23:54.864Z,22.58
2023-07-08T21:26:30.627Z,22.61
2023-07-08T21:28:58.995Z,22.65
2023-07-08T21:31:25.927Z,22.64
2023-07-08T21:33:53.159Z,22.67
2023-07-08T21:36:24.867Z,22.49
2023-07-08T21:38:52.707Z,22.40
2023-07-08T21:41:19.606Z,22.44
2023-07-08T21:43:47.582Z,22.36
2023-07-08T21:46:14.372Z,22.32
2023-07-08T21:48:41.635Z,22.23
2023-07-08T21:51:28.824Z,22.17
2023-07-08T21:53:57.191Z,22.24
2023-07-08T21:56:23.985Z,22.28
2023-07-08T21:58:51.481Z,22.32
2023-07-08T22:01:20.375Z,22.38
2023-07-08T22:03:47.912Z,22.31
2023-07-08T22:06:16.264Z,22.15
2023-07-08T22:08:43.093Z,22.08
2023-07-08T22:11:22.628Z,22.12
2023-07-08T22:13:50.633Z,22.16
2023-07-08T22:20:12.166Z,22.46
2023-07-08T22:22:40.794Z,22.88
2023-07-08T22:25:34.719Z,23.42
2023-07-08T22:28:01.500Z,22.78
2023-07-08T22:30:28.280Z,22.32
2023-07-08T22:32:55.787Z,22.30
2023-07-08T22:35:23.983Z,21.73
2023-07-08T22:37:51.209Z,21.79
2023-07-08T22:40:18.268Z,21.93
2023-07-08T22:42:45.012Z,21.90
2023-07-08T22:45:15.841Z,21.91
2023-07-08T22:47:42.699Z,21.86
2023-07-08T22:50:09.921Z,21.51
2023-07-08T22:52:38.132Z,21.26
2023-07-08T22:55:10.722Z,21.32
2023-07-08T22:57:38.048Z,21.44
2023-07-08T23:00:06.921Z,21.46
2023-07-08T23:02:34.995Z,21.45
2023-07-08T23:05:01.768Z,21.38
2023-07-08T23:07:28.966Z,21.15
2023-07-08T23:09:55.749Z,21.14
2023-07-08T23:12:22.519Z,21.13
2023-07-08T23:14:50.042Z,20.95
2023-07-08T23:17:17.135Z,21.04
2023-07-08T23:19:44.244Z,21.02
2023-07-08T23:22:32.550Z,21.03
2023-07-08T23:24:59.853Z,20.97
2023-07-08T23:27:26.633Z,21.16
2023-07-08T23:29:53.635Z,21.22
2023-07-08T23:32:23.361Z,21.13
2023-07-08T23:34:53.134Z,20.99
2023-07-08T23:37:20.480Z,20.96
2023-07-08T23:39:47.664Z,20.76
2023-07-08T23:42:14.956Z,20.69
2023-07-08T23:44:41.795Z,20.66
2023-07-08T23:49:46.885Z,20.82
2023-07-08T23:52:15.545Z,20.65
2023-07-08T23:54:42.648Z,20.59
2023-07-08T23:57:27.464Z,20.57
2023-07-08T23:59:56.517Z,20.64
